sensor_id;sensor_type;location;lat;lon;timestamp;P1;durP1;ratioP1;P2;durP2;ratioP2
21848;SDS011;11089;49.852;19.700;2023-11-21T00:02:15;11.02;;;6.13;;
21848;SDS011;11089;49.852;19.700;2023-11-21T00:05:16;14.27;;;7.45;;
21848;SDS011;11089;49.852;19.700;2023-11-21T00:08:17;8.45;;;5.45;;
21848;SDS011;11089;49.852;19.700;2023-11-21T00:11:18;10.52;;;6.40;;
21848;SDS011;11089;49.852;19.700;2023-11-21T00:14:19;16.45;;;7.20;;
21848;SDS011;11089;49.852;19.700;2023-11-21T00:17:20;9.02;;;4.40;;
21848;SDS011;11089;49.852;19.700;2023-11-21T00:20:21;8.90;;;4.90;;
21848;SDS011;11089;49.852;19.700;2023-11-21T00:23:22;7.65;;;4.55;;
21848;SDS011;11089;49.852;19.700;2023-11-21T00:26:23;9.77;;;5.20;;
21848;SDS011;11089;49.852;19.700;2023-11-21T00:29:24;7.20;;;4.60;;
21848;SDS011;11089;49.852;19.700;2023-11-21T00:32:26;6.93;;;4.53;;
21848;SDS011;11089;49.852;19.700;2023-11-21T00:35:26;6.60;;;4.13;;
21848;SDS011;11089;49.852;19.700;2023-11-21T00:38:27;6.50;;;4.50;;
21848;SDS011;11089;49.852;19.700;2023-11-21T00:41:28;7.10;;;4.45;;
21848;SDS011;11089;49.852;19.700;2023-11-21T00:44:29;6.75;;;4.10;;
21848;SDS011;11089;49.852;19.700;2023-11-21T00:47:30;9.98;;;4.60;;
21848;SDS011;11089;49.852;19.700;2023-11-21T00:50:31;6.28;;;3.85;;
21848;SDS011;11089;49.852;19.700;2023-11-21T00:53:32;4.05;;;2.85;;
21848;SDS011;11089;49.852;19.700;2023-11-21T00:56:33;6.70;;;4.03;;
21848;SDS011;11089;49.852;19.700;2023-11-21T00:59:34;5.47;;;3.28;;
21848;SDS011;11089;49.852;19.700;2023-11-21T01:02:35;4.45;;;3.45;;
21848;SDS011;11089;49.852;19.700;2023-11-21T01:05:36;6.50;;;3.72;;
21848;SDS011;11089;49.852;19.700;2023-11-21T01:08:37;7.50;;;4.25;;
21848;SDS011;11089;49.852;19.700;2023-11-21T01:11:38;5.13;;;3.25;;
21848;SDS011;11089;49.852;19.700;2023-11-21T01:14:39;5.63;;;3.55;;
21848;SDS011;11089;49.852;19.700;2023-11-21T01:17:40;5.65;;;3.20;;
21848;SDS011;11089;49.852;19.700;2023-11-21T01:20:41;6.00;;;3.90;;
21848;SDS011;11089;49.852;19.700;2023-11-21T01:23:42;4.75;;;3.10;;
21848;SDS011;11089;49.852;19.700;2023-11-21T01:26:43;8.80;;;3.13;;
21848;SDS011;11089;49.852;19.700;2023-11-21T01:29:46;7.13;;;3.47;;
21848;SDS011;11089;49.852;19.700;2023-11-21T01:32:47;7.20;;;3.10;;
21848;SDS011;11089;49.852;19.700;2023-11-21T01:35:48;4.55;;;2.83;;
21848;SDS011;11089;49.852;19.700;2023-11-21T01:38:49;5.25;;;2.97;;
21848;SDS011;11089;49.852;19.700;2023-11-21T01:41:50;5.97;;;2.95;;
21848;SDS011;11089;49.852;19.700;2023-11-21T01:44:52;4.88;;;3.00;;
21848;SDS011;11089;49.852;19.700;2023-11-21T01:47:54;5.05;;;2.60;;
21848;SDS011;11089;49.852;19.700;2023-11-21T01:50:55;3.78;;;2.75;;
21848;SDS011;11089;49.852;19.700;2023-11-21T01:53:56;5.25;;;2.90;;
21848;SDS011;11089;49.852;19.700;2023-11-21T01:56:58;3.47;;;2.47;;
21848;SDS011;11089;49.852;19.700;2023-11-21T02:00:03;4.35;;;2.50;;
21848;SDS011;11089;49.852;19.700;2023-11-21T02:03:15;4.10;;;2.35;;
21848;SDS011;11089;49.852;19.700;2023-11-21T02:06:16;3.58;;;2.40;;
21848;SDS011;11089;49.852;19.700;2023-11-21T02:09:22;7.07;;;2.78;;
21848;SDS011;11089;49.852;19.700;2023-11-21T02:12:27;5.53;;;2.50;;
21848;SDS011;11089;49.852;19.700;2023-11-21T02:15:28;5.20;;;2.90;;
21848;SDS011;11089;49.852;19.700;2023-11-21T02:18:29;3.80;;;2.30;;
21848;SDS011;11089;49.852;19.700;2023-11-21T02:21:30;6.75;;;2.75;;
21848;SDS011;11089;49.852;19.700;2023-11-21T02:24:32;4.50;;;2.72;;
21848;SDS011;11089;49.852;19.700;2023-11-21T02:27:33;4.40;;;2.88;;
21848;SDS011;11089;49.852;19.700;2023-11-21T02:30:34;4.78;;;2.42;;
21848;SDS011;11089;49.852;19.700;2023-11-21T02:33:35;6.93;;;2.50;;
21848;SDS011;11089;49.852;19.700;2023-11-21T02:36:37;5.32;;;2.63;;
21848;SDS011;11089;49.852;19.700;2023-11-21T02:39:38;4.00;;;2.45;;
21848;SDS011;11089;49.852;19.700;2023-11-21T02:42:39;5.28;;;2.28;;
21848;SDS011;11089;49.852;19.700;2023-11-21T02:45:40;4.25;;;2.03;;
21848;SDS011;11089;49.852;19.700;2023-11-21T02:48:42;7.43;;;2.53;;
21848;SDS011;11089;49.852;19.700;2023-11-21T02:51:42;5.10;;;2.25;;
21848;SDS011;11089;49.852;19.700;2023-11-21T02:54:43;3.45;;;2.25;;
21848;SDS011;11089;49.852;19.700;2023-11-21T02:57:45;4.40;;;2.33;;
21848;SDS011;11089;49.852;19.700;2023-11-21T03:00:45;4.25;;;2.30;;
21848;SDS011;11089;49.852;19.700;2023-11-21T03:03:47;2.83;;;2.33;;
21848;SDS011;11089;49.852;19.700;2023-11-21T03:06:51;6.47;;;2.28;;
21848;SDS011;11089;49.852;19.700;2023-11-21T03:09:52;6.82;;;2.10;;
21848;SDS011;11089;49.852;19.700;2023-11-21T03:12:53;5.03;;;2.20;;
21848;SDS011;11089;49.852;19.700;2023-11-21T03:15:54;3.45;;;2.30;;
21848;SDS011;11089;49.852;19.700;2023-11-21T03:18:54;3.95;;;2.28;;
21848;SDS011;11089;49.852;19.700;2023-11-21T03:21:55;3.55;;;2.08;;
21848;SDS011;11089;49.852;19.700;2023-11-21T03:24:56;5.50;;;2.50;;
21848;SDS011;11089;49.852;19.700;2023-11-21T03:27:58;5.63;;;2.50;;
21848;SDS011;11089;49.852;19.700;2023-11-21T03:30:59;5.38;;;2.25;;
21848;SDS011;11089;49.852;19.700;2023-11-21T03:34:00;5.20;;;2.70;;
21848;SDS011;11089;49.852;19.700;2023-11-21T03:37:01;8.07;;;2.78;;
21848;SDS011;11089;49.852;19.700;2023-11-21T03:40:02;6.20;;;2.60;;
21848;SDS011;11089;49.852;19.700;2023-11-21T03:43:04;5.43;;;2.75;;
21848;SDS011;11089;49.852;19.700;2023-11-21T03:46:05;5.63;;;2.92;;
21848;SDS011;11089;49.852;19.700;2023-11-21T03:49:07;8.85;;;2.90;;
21848;SDS011;11089;49.852;19.700;2023-11-21T03:52:08;4.82;;;2.70;;
21848;SDS011;11089;49.852;19.700;2023-11-21T03:55:10;9.65;;;2.95;;
21848;SDS011;11089;49.852;19.700;2023-11-21T03:58:11;7.35;;;3.10;;
21848;SDS011;11089;49.852;19.700;2023-11-21T04:01:18;8.80;;;3.33;;
21848;SDS011;11089;49.852;19.700;2023-11-21T04:04:22;6.55;;;3.42;;
21848;SDS011;11089;49.852;19.700;2023-11-21T04:07:23;6.13;;;2.90;;
21848;SDS011;11089;49.852;19.700;2023-11-21T04:10:24;8.32;;;3.42;;
21848;SDS011;11089;49.852;19.700;2023-11-21T04:13:25;7.88;;;3.03;;
21848;SDS011;11089;49.852;19.700;2023-11-21T04:16:26;5.25;;;3.10;;
21848;SDS011;11089;49.852;19.700;2023-11-21T04:19:27;5.70;;;2.90;;
21848;SDS011;11089;49.852;19.700;2023-11-21T04:22:27;6.47;;;3.20;;
21848;SDS011;11089;49.852;19.700;2023-11-21T04:25:28;8.15;;;3.67;;
21848;SDS011;11089;49.852;19.700;2023-11-21T04:28:29;9.43;;;3.58;;
21848;SDS011;11089;49.852;19.700;2023-11-21T04:31:30;7.18;;;3.72;;
21848;SDS011;11089;49.852;19.700;2023-11-21T04:34:32;7.07;;;3.38;;
21848;SDS011;11089;49.852;19.700;2023-11-21T04:37:33;9.90;;;3.40;;
21848;SDS011;11089;49.852;19.700;2023-11-21T04:40:34;5.78;;;3.00;;
21848;SDS011;11089;49.852;19.700;2023-11-21T04:43:35;8.65;;;3.78;;
21848;SDS011;11089;49.852;19.700;2023-11-21T04:46:36;6.65;;;3.50;;
21848;SDS011;11089;49.852;19.700;2023-11-21T04:49:37;9.15;;;3.58;;
21848;SDS011;11089;49.852;19.700;2023-11-21T04:52:40;5.82;;;3.20;;
21848;SDS011;11089;49.852;19.700;2023-11-21T04:55:41;8.43;;;2.90;;
21848;SDS011;11089;49.852;19.700;2023-11-21T04:58:42;7.07;;;3.05;;
21848;SDS011;11089;49.852;19.700;2023-11-21T05:01:42;7.43;;;3.72;;
21848;SDS011;11089;49.852;19.700;2023-11-21T05:04:43;14.40;;;4.20;;
21848;SDS011;11089;49.852;19.700;2023-11-21T05:07:44;8.20;;;3.75;;
21848;SDS011;11089;49.852;19.700;2023-11-21T05:10:45;4.35;;;3.03;;
21848;SDS011;11089;49.852;19.700;2023-11-21T05:13:46;5.43;;;2.95;;
21848;SDS011;11089;49.852;19.700;2023-11-21T05:16:48;5.80;;;3.58;;
21848;SDS011;11089;49.852;19.700;2023-11-21T05:19:51;5.82;;;3.58;;
21848;SDS011;11089;49.852;19.700;2023-11-21T05:22:52;8.65;;;4.85;;
21848;SDS011;11089;49.852;19.700;2023-11-21T05:25:53;6.07;;;3.92;;
21848;SDS011;11089;49.852;19.700;2023-11-21T05:28:53;7.45;;;3.67;;
21848;SDS011;11089;49.852;19.700;2023-11-21T05:31:54;7.38;;;4.03;;
21848;SDS011;11089;49.852;19.700;2023-11-21T05:34:55;12.25;;;4.07;;
21848;SDS011;11089;49.852;19.700;2023-11-21T05:37:56;7.93;;;3.35;;
21848;SDS011;11089;49.852;19.700;2023-11-21T05:40:57;7.95;;;3.40;;
21848;SDS011;11089;49.852;19.700;2023-11-21T05:43:58;10.68;;;4.78;;
21848;SDS011;11089;49.852;19.700;2023-11-21T05:46:59;16.77;;;7.43;;
21848;SDS011;11089;49.852;19.700;2023-11-21T05:50:00;15.05;;;7.85;;
21848;SDS011;11089;49.852;19.700;2023-11-21T05:53:02;15.88;;;6.65;;
21848;SDS011;11089;49.852;19.700;2023-11-21T05:56:03;18.58;;;8.35;;
21848;SDS011;11089;49.852;19.700;2023-11-21T05:59:04;20.27;;;9.45;;
21848;SDS011;11089;49.852;19.700;2023-11-21T06:02:06;18.80;;;9.35;;
21848;SDS011;11089;49.852;19.700;2023-11-21T06:05:08;17.50;;;9.13;;
21848;SDS011;11089;49.852;19.700;2023-11-21T06:08:09;12.85;;;7.32;;
21848;SDS011;11089;49.852;19.700;2023-11-21T06:11:10;13.57;;;6.93;;
21848;SDS011;11089;49.852;19.700;2023-11-21T06:14:12;11.30;;;6.65;;
21848;SDS011;11089;49.852;19.700;2023-11-21T06:17:13;10.68;;;6.03;;
21848;SDS011;11089;49.852;19.700;2023-11-21T06:20:14;7.63;;;4.10;;
21848;SDS011;11089;49.852;19.700;2023-11-21T06:23:15;11.07;;;4.45;;
21848;SDS011;11089;49.852;19.700;2023-11-21T06:26:16;8.07;;;4.05;;
21848;SDS011;11089;49.852;19.700;2023-11-21T06:29:17;4.85;;;3.70;;
21848;SDS011;11089;49.852;19.700;2023-11-21T06:32:18;10.68;;;5.55;;
21848;SDS011;11089;49.852;19.700;2023-11-21T06:35:20;10.18;;;5.97;;
21848;SDS011;11089;49.852;19.700;2023-11-21T06:38:21;14.43;;;6.43;;
21848;SDS011;11089;49.852;19.700;2023-11-21T06:41:22;11.98;;;5.80;;
21848;SDS011;11089;49.852;19.700;2023-11-21T06:44:23;11.35;;;6.68;;
21848;SDS011;11089;49.852;19.700;2023-11-21T06:47:25;9.70;;;5.93;;
21848;SDS011;11089;49.852;19.700;2023-11-21T06:50:26;15.85;;;7.18;;
21848;SDS011;11089;49.852;19.700;2023-11-21T06:53:26;12.20;;;6.80;;
21848;SDS011;11089;49.852;19.700;2023-11-21T06:56:27;14.43;;;7.32;;
21848;SDS011;11089;49.852;19.700;2023-11-21T06:59:28;18.30;;;9.20;;
21848;SDS011;11089;49.852;19.700;2023-11-21T07:02:29;33.45;;;13.57;;
21848;SDS011;11089;49.852;19.700;2023-11-21T07:05:31;31.40;;;14.43;;
21848;SDS011;11089;49.852;19.700;2023-11-21T07:08:32;24.88;;;11.80;;
21848;SDS011;11089;49.852;19.700;2023-11-21T07:11:33;33.33;;;13.30;;
21848;SDS011;11089;49.852;19.700;2023-11-21T07:14:34;32.17;;;14.65;;
21848;SDS011;11089;49.852;19.700;2023-11-21T07:17:35;42.92;;;21.48;;
21848;SDS011;11089;49.852;19.700;2023-11-21T07:20:37;34.13;;;18.38;;
21848;SDS011;11089;49.852;19.700;2023-11-21T07:23:38;28.10;;;14.25;;
21848;SDS011;11089;49.852;19.700;2023-11-21T07:26:38;29.77;;;14.00;;
21848;SDS011;11089;49.852;19.700;2023-11-21T07:29:39;46.38;;;17.02;;
21848;SDS011;11089;49.852;19.700;2023-11-21T07:32:41;86.88;;;28.90;;
21848;SDS011;11089;49.852;19.700;2023-11-21T07:35:42;53.03;;;18.42;;
21848;SDS011;11089;49.852;19.700;2023-11-21T07:38:43;112.32;;;36.15;;
21848;SDS011;11089;49.852;19.700;2023-11-21T07:41:43;97.57;;;33.67;;
21848;SDS011;11089;49.852;19.700;2023-11-21T07:44:48;73.75;;;28.13;;
21848;SDS011;11089;49.852;19.700;2023-11-21T07:47:50;42.28;;;16.33;;
21848;SDS011;11089;49.852;19.700;2023-11-21T07:50:51;18.88;;;9.00;;
21848;SDS011;11089;49.852;19.700;2023-11-21T07:53:52;17.10;;;7.95;;
21848;SDS011;11089;49.852;19.700;2023-11-21T07:56:53;15.52;;;7.63;;
21848;SDS011;11089;49.852;19.700;2023-11-21T07:59:53;18.75;;;9.05;;
21848;SDS011;11089;49.852;19.700;2023-11-21T08:02:55;20.17;;;8.68;;
21848;SDS011;11089;49.852;19.700;2023-11-21T08:05:56;10.80;;;5.72;;
21848;SDS011;11089;49.852;19.700;2023-11-21T08:08:58;5.82;;;4.28;;
21848;SDS011;11089;49.852;19.700;2023-11-21T08:11:59;7.55;;;4.45;;
21848;SDS011;11089;49.852;19.700;2023-11-21T08:15:02;11.23;;;5.47;;
21848;SDS011;11089;49.852;19.700;2023-11-21T08:18:03;10.57;;;5.18;;
21848;SDS011;11089;49.852;19.700;2023-11-21T08:21:04;12.68;;;5.75;;
21848;SDS011;11089;49.852;19.700;2023-11-21T08:24:06;10.80;;;5.40;;
21848;SDS011;11089;49.852;19.700;2023-11-21T08:27:10;18.33;;;6.35;;
21848;SDS011;11089;49.852;19.700;2023-11-21T08:30:11;17.08;;;7.40;;
21848;SDS011;11089;49.852;19.700;2023-11-21T08:33:14;24.60;;;8.48;;
21848;SDS011;11089;49.852;19.700;2023-11-21T08:36:15;34.28;;;11.77;;
21848;SDS011;11089;49.852;19.700;2023-11-21T08:39:16;43.53;;;14.48;;
21848;SDS011;11089;49.852;19.700;2023-11-21T08:42:19;25.52;;;9.73;;
21848;SDS011;11089;49.852;19.700;2023-11-21T08:45:21;17.15;;;7.45;;
21848;SDS011;11089;49.852;19.700;2023-11-21T08:48:22;17.33;;;7.75;;
21848;SDS011;11089;49.852;19.700;2023-11-21T08:51:23;17.15;;;6.47;;
21848;SDS011;11089;49.852;19.700;2023-11-21T08:54:25;16.65;;;8.18;;
21848;SDS011;11089;49.852;19.700;2023-11-21T08:57:26;15.15;;;6.43;;
21848;SDS011;11089;49.852;19.700;2023-11-21T09:00:27;15.00;;;6.88;;
21848;SDS011;11089;49.852;19.700;2023-11-21T09:03:29;12.90;;;5.82;;
21848;SDS011;11089;49.852;19.700;2023-11-21T09:06:30;12.05;;;6.10;;
21848;SDS011;11089;49.852;19.700;2023-11-21T09:09:31;18.48;;;7.82;;
21848;SDS011;11089;49.852;19.700;2023-11-21T09:12:31;16.38;;;7.32;;
21848;SDS011;11089;49.852;19.700;2023-11-21T09:15:32;14.73;;;6.60;;
21848;SDS011;11089;49.852;19.700;2023-11-21T09:18:33;12.02;;;5.97;;
21848;SDS011;11089;49.852;19.700;2023-11-21T09:21:34;10.85;;;5.43;;
21848;SDS011;11089;49.852;19.700;2023-11-21T09:24:36;14.75;;;6.18;;
21848;SDS011;11089;49.852;19.700;2023-11-21T09:27:37;12.77;;;6.95;;
21848;SDS011;11089;49.852;19.700;2023-11-21T09:30:38;17.08;;;8.48;;
21848;SDS011;11089;49.852;19.700;2023-11-21T09:33:39;14.98;;;6.97;;
21848;SDS011;11089;49.852;19.700;2023-11-21T09:36:40;15.88;;;6.65;;
21848;SDS011;11089;49.852;19.700;2023-11-21T09:39:41;29.30;;;12.65;;
21848;SDS011;11089;49.852;19.700;2023-11-21T09:42:49;38.67;;;15.43;;
21848;SDS011;11089;49.852;19.700;2023-11-21T09:46:01;36.50;;;16.73;;
21848;SDS011;11089;49.852;19.700;2023-11-21T09:49:06;36.45;;;13.32;;
21848;SDS011;11089;49.852;19.700;2023-11-21T09:52:18;24.88;;;10.55;;
21848;SDS011;11089;49.852;19.700;2023-11-21T09:55:27;20.95;;;8.63;;
21848;SDS011;11089;49.852;19.700;2023-11-21T09:58:32;16.70;;;7.03;;
21848;SDS011;11089;49.852;19.700;2023-11-21T10:01:37;10.82;;;6.20;;
21848;SDS011;11089;49.852;19.700;2023-11-21T10:04:39;14.43;;;6.95;;
21848;SDS011;11089;49.852;19.700;2023-11-21T10:07:40;12.55;;;6.18;;
21848;SDS011;11089;49.852;19.700;2023-11-21T10:10:45;11.98;;;5.95;;
21848;SDS011;11089;49.852;19.700;2023-11-21T10:13:49;14.80;;;6.70;;
21848;SDS011;11089;49.852;19.700;2023-11-21T10:16:54;6.43;;;4.30;;
21848;SDS011;11089;49.852;19.700;2023-11-21T10:19:57;7.18;;;4.03;;
21848;SDS011;11089;49.852;19.700;2023-11-21T10:22:59;9.07;;;5.00;;
21848;SDS011;11089;49.852;19.700;2023-11-21T10:26:04;9.80;;;4.63;;
21848;SDS011;11089;49.852;19.700;2023-11-21T10:29:09;7.30;;;3.45;;
21848;SDS011;11089;49.852;19.700;2023-11-21T10:32:12;5.38;;;3.25;;
21848;SDS011;11089;49.852;19.700;2023-11-21T10:35:13;7.43;;;4.28;;
21848;SDS011;11089;49.852;19.700;2023-11-21T10:38:14;5.05;;;3.70;;
21848;SDS011;11089;49.852;19.700;2023-11-21T10:41:15;11.70;;;3.90;;
21848;SDS011;11089;49.852;19.700;2023-11-21T10:44:18;8.38;;;3.40;;
21848;SDS011;11089;49.852;19.700;2023-11-21T10:47:24;8.82;;;4.18;;
21848;SDS011;11089;49.852;19.700;2023-11-21T10:50:26;9.55;;;4.35;;
21848;SDS011;11089;49.852;19.700;2023-11-21T10:53:28;8.73;;;5.00;;
21848;SDS011;11089;49.852;19.700;2023-11-21T10:56:29;11.95;;;5.22;;
21848;SDS011;11089;49.852;19.700;2023-11-21T10:59:30;8.73;;;5.00;;
21848;SDS011;11089;49.852;19.700;2023-11-21T11:02:32;12.10;;;5.32;;
21848;SDS011;11089;49.852;19.700;2023-11-21T11:05:34;13.05;;;5.35;;
21848;SDS011;11089;49.852;19.700;2023-11-21T11:08:36;9.93;;;5.13;;
21848;SDS011;11089;49.852;19.700;2023-11-21T11:11:39;9.13;;;5.50;;
21848;SDS011;11089;49.852;19.700;2023-11-21T11:14:41;10.40;;;4.80;;
21848;SDS011;11089;49.852;19.700;2023-11-21T11:17:44;7.47;;;4.40;;
21848;SDS011;11089;49.852;19.700;2023-11-21T11:20:46;8.52;;;3.83;;
21848;SDS011;11089;49.852;19.700;2023-11-21T11:23:55;7.03;;;3.90;;
21848;SDS011;11089;49.852;19.700;2023-11-21T11:33:21;6.70;;;4.50;;
21848;SDS011;11089;49.852;19.700;2023-11-21T11:36:41;9.02;;;4.75;;
21848;SDS011;11089;49.852;19.700;2023-11-21T11:39:48;9.80;;;4.50;;
21848;SDS011;11089;49.852;19.700;2023-11-21T11:43:00;11.45;;;4.25;;
21848;SDS011;11089;49.852;19.700;2023-11-21T11:46:03;6.97;;;4.07;;
21848;SDS011;11089;49.852;19.700;2023-11-21T11:49:04;7.75;;;4.63;;
21848;SDS011;11089;49.852;19.700;2023-11-21T11:55:40;10.43;;;4.60;;
21848;SDS011;11089;49.852;19.700;2023-11-21T11:58:41;8.02;;;3.97;;
21848;SDS011;11089;49.852;19.700;2023-11-21T12:01:44;9.77;;;5.30;;
21848;SDS011;11089;49.852;19.700;2023-11-21T12:04:46;9.95;;;4.70;;
21848;SDS011;11089;49.852;19.700;2023-11-21T12:07:51;13.30;;;5.65;;
21848;SDS011;11089;49.852;19.700;2023-11-21T12:10:53;10.52;;;5.13;;
21848;SDS011;11089;49.852;19.700;2023-11-21T12:13:55;15.27;;;5.20;;
21848;SDS011;11089;49.852;19.700;2023-11-21T12:16:56;7.65;;;4.72;;
21848;SDS011;11089;49.852;19.700;2023-11-21T12:20:03;11.32;;;5.68;;
21848;SDS011;11089;49.852;19.700;2023-11-21T12:23:06;12.77;;;5.28;;
21848;SDS011;11089;49.852;19.700;2023-11-21T12:26:09;11.55;;;5.68;;
21848;SDS011;11089;49.852;19.700;2023-11-21T12:29:10;10.57;;;5.68;;
21848;SDS011;11089;49.852;19.700;2023-11-21T12:32:12;10.52;;;5.30;;
21848;SDS011;11089;49.852;19.700;2023-11-21T12:35:15;10.38;;;5.30;;
21848;SDS011;11089;49.852;19.700;2023-11-21T12:38:19;12.48;;;6.13;;
21848;SDS011;11089;49.852;19.700;2023-11-21T12:41:20;9.70;;;5.55;;
21848;SDS011;11089;49.852;19.700;2023-11-21T12:44:22;12.10;;;6.32;;
21848;SDS011;11089;49.852;19.700;2023-11-21T12:47:24;17.23;;;7.40;;
21848;SDS011;11089;49.852;19.700;2023-11-21T12:50:26;16.48;;;7.43;;
21848;SDS011;11089;49.852;19.700;2023-11-21T12:53:34;20.75;;;9.48;;
21848;SDS011;11089;49.852;19.700;2023-11-21T12:56:39;18.70;;;7.63;;
21848;SDS011;11089;49.852;19.700;2023-11-21T12:59:40;21.75;;;8.98;;
21848;SDS011;11089;49.852;19.700;2023-11-21T13:02:43;26.63;;;11.05;;
21848;SDS011;11089;49.852;19.700;2023-11-21T13:05:45;36.33;;;13.98;;
21848;SDS011;11089;49.852;19.700;2023-11-21T13:08:51;24.85;;;10.90;;
21848;SDS011;11089;49.852;19.700;2023-11-21T13:11:59;15.50;;;7.50;;
21848;SDS011;11089;49.852;19.700;2023-11-21T13:15:04;17.38;;;7.32;;
21848;SDS011;11089;49.852;19.700;2023-11-21T13:18:07;16.10;;;7.97;;
21848;SDS011;11089;49.852;19.700;2023-11-21T13:21:11;13.48;;;7.90;;
21848;SDS011;11089;49.852;19.700;2023-11-21T13:24:15;16.17;;;7.57;;
21848;SDS011;11089;49.852;19.700;2023-11-21T13:27:18;26.90;;;13.05;;
21848;SDS011;11089;49.852;19.700;2023-11-21T13:30:19;41.78;;;16.92;;
21848;SDS011;11089;49.852;19.700;2023-11-21T13:33:26;40.97;;;14.32;;
21848;SDS011;11089;49.852;19.700;2023-11-21T13:36:27;23.30;;;9.82;;
21848;SDS011;11089;49.852;19.700;2023-11-21T13:39:32;52.30;;;17.55;;
21848;SDS011;11089;49.852;19.700;2023-11-21T13:42:35;39.13;;;14.35;;
21848;SDS011;11089;49.852;19.700;2023-11-21T13:45:37;38.85;;;14.10;;
21848;SDS011;11089;49.852;19.700;2023-11-21T13:48:42;47.97;;;18.08;;
21848;SDS011;11089;49.852;19.700;2023-11-21T13:51:47;34.03;;;13.95;;
21848;SDS011;11089;49.852;19.700;2023-11-21T13:54:52;56.33;;;19.25;;
21848;SDS011;11089;49.852;19.700;2023-11-21T13:57:53;50.55;;;18.27;;
21848;SDS011;11089;49.852;19.700;2023-11-21T14:00:54;48.03;;;17.83;;
21848;SDS011;11089;49.852;19.700;2023-11-21T14:04:01;54.25;;;17.80;;
21848;SDS011;11089;49.852;19.700;2023-11-21T14:07:19;33.60;;;13.23;;
21848;SDS011;11089;49.852;19.700;2023-11-21T14:10:47;26.00;;;11.63;;
21848;SDS011;11089;49.852;19.700;2023-11-21T14:13:55;19.05;;;8.57;;
21848;SDS011;11089;49.852;19.700;2023-11-21T14:16:58;23.75;;;10.50;;
21848;SDS011;11089;49.852;19.700;2023-11-21T14:19:59;16.30;;;7.22;;
21848;SDS011;11089;49.852;19.700;2023-11-21T14:23:02;15.77;;;6.22;;
21848;SDS011;11089;49.852;19.700;2023-11-21T14:26:07;29.92;;;12.15;;
21848;SDS011;11089;49.852;19.700;2023-11-21T14:29:08;34.72;;;15.32;;
21848;SDS011;11089;49.852;19.700;2023-11-21T14:32:12;32.70;;;14.13;;
21848;SDS011;11089;49.852;19.700;2023-11-21T14:35:15;24.83;;;11.23;;
21848;SDS011;11089;49.852;19.700;2023-11-21T14:38:16;19.88;;;8.20;;
21848;SDS011;11089;49.852;19.700;2023-11-21T14:41:18;19.88;;;7.97;;
21848;SDS011;11089;49.852;19.700;2023-11-21T14:44:19;13.73;;;6.95;;
21848;SDS011;11089;49.852;19.700;2023-11-21T14:47:21;17.67;;;8.38;;
21848;SDS011;11089;49.852;19.700;2023-11-21T14:50:27;13.40;;;7.45;;
21848;SDS011;11089;49.852;19.700;2023-11-21T14:53:41;70.70;;;28.48;;
21848;SDS011;11089;49.852;19.700;2023-11-21T14:57:02;94.90;;;34.58;;
21848;SDS011;11089;49.852;19.700;2023-11-21T15:00:05;56.85;;;21.30;;
21848;SDS011;11089;49.852;19.700;2023-11-21T15:03:10;39.25;;;12.82;;
21848;SDS011;11089;49.852;19.700;2023-11-21T15:06:30;66.18;;;24.65;;
21848;SDS011;11089;49.852;19.700;2023-11-21T15:09:31;39.17;;;15.00;;
21848;SDS011;11089;49.852;19.700;2023-11-21T15:12:32;47.08;;;18.05;;
21848;SDS011;11089;49.852;19.700;2023-11-21T15:15:38;44.00;;;15.38;;
21848;SDS011;11089;49.852;19.700;2023-11-21T15:18:39;25.25;;;9.15;;
21848;SDS011;11089;49.852;19.700;2023-11-21T15:21:40;18.70;;;7.45;;
21848;SDS011;11089;49.852;19.700;2023-11-21T15:24:42;16.90;;;7.82;;
21848;SDS011;11089;49.852;19.700;2023-11-21T15:27:45;23.98;;;9.93;;
21848;SDS011;11089;49.852;19.700;2023-11-21T15:30:49;16.38;;;8.10;;
21848;SDS011;11089;49.852;19.700;2023-11-21T15:33:52;11.45;;;5.72;;
21848;SDS011;11089;49.852;19.700;2023-11-21T15:36:59;9.00;;;4.75;;
21848;SDS011;11089;49.852;19.700;2023-11-21T15:40:01;7.85;;;4.43;;
21848;SDS011;11089;49.852;19.700;2023-11-21T15:43:05;10.50;;;5.53;;
21848;SDS011;11089;49.852;19.700;2023-11-21T15:46:07;14.35;;;7.60;;
21848;SDS011;11089;49.852;19.700;2023-11-21T15:49:08;14.70;;;7.15;;
21848;SDS011;11089;49.852;19.700;2023-11-21T15:52:15;13.30;;;6.25;;
21848;SDS011;11089;49.852;19.700;2023-11-21T15:55:15;11.82;;;6.07;;
21848;SDS011;11089;49.852;19.700;2023-11-21T15:58:17;9.43;;;5.90;;
21848;SDS011;11089;49.852;19.700;2023-11-21T16:01:18;17.98;;;8.73;;
21848;SDS011;11089;49.852;19.700;2023-11-21T16:04:20;11.57;;;6.78;;
21848;SDS011;11089;49.852;19.700;2023-11-21T16:07:22;12.07;;;6.47;;
21848;SDS011;11089;49.852;19.700;2023-11-21T16:10:23;25.88;;;12.43;;
21848;SDS011;11089;49.852;19.700;2023-11-21T16:13:24;37.60;;;16.83;;
21848;SDS011;11089;49.852;19.700;2023-11-21T16:16:24;39.40;;;16.90;;
21848;SDS011;11089;49.852;19.700;2023-11-21T16:19:25;32.33;;;14.50;;
21848;SDS011;11089;49.852;19.700;2023-11-21T16:22:26;33.42;;;15.63;;
21848;SDS011;11089;49.852;19.700;2023-11-21T16:25:28;52.03;;;24.88;;
21848;SDS011;11089;49.852;19.700;2023-11-21T16:28:29;44.30;;;22.45;;
21848;SDS011;11089;49.852;19.700;2023-11-21T16:31:30;43.80;;;19.92;;
21848;SDS011;11089;49.852;19.700;2023-11-21T16:34:33;46.95;;;19.73;;
21848;SDS011;11089;49.852;19.700;2023-11-21T16:37:35;65.50;;;26.27;;
21848;SDS011;11089;49.852;19.700;2023-11-21T16:40:36;55.50;;;19.80;;
21848;SDS011;11089;49.852;19.700;2023-11-21T16:43:37;65.82;;;26.02;;
21848;SDS011;11089;49.852;19.700;2023-11-21T16:46:38;67.97;;;26.17;;
21848;SDS011;11089;49.852;19.700;2023-11-21T16:49:39;56.67;;;22.42;;
21848;SDS011;11089;49.852;19.700;2023-11-21T16:52:42;47.10;;;20.70;;
21848;SDS011;11089;49.852;19.700;2023-11-21T16:55:43;50.90;;;22.05;;
21848;SDS011;11089;49.852;19.700;2023-11-21T16:58:44;45.13;;;20.05;;
21848;SDS011;11089;49.852;19.700;2023-11-21T17:01:45;58.30;;;24.50;;
21848;SDS011;11089;49.852;19.700;2023-11-21T17:04:47;55.28;;;24.02;;
21848;SDS011;11089;49.852;19.700;2023-11-21T17:07:49;58.33;;;24.58;;
21848;SDS011;11089;49.852;19.700;2023-11-21T17:10:52;49.70;;;19.98;;
21848;SDS011;11089;49.852;19.700;2023-11-21T17:13:53;46.38;;;18.48;;
21848;SDS011;11089;49.852;19.700;2023-11-21T17:16:54;35.72;;;15.93;;
21848;SDS011;11089;49.852;19.700;2023-11-21T17:19:55;34.10;;;14.88;;
21848;SDS011;11089;49.852;19.700;2023-11-21T17:22:55;40.75;;;17.85;;
21848;SDS011;11089;49.852;19.700;2023-11-21T17:25:57;48.20;;;21.90;;
21848;SDS011;11089;49.852;19.700;2023-11-21T17:28:58;52.03;;;23.13;;
21848;SDS011;11089;49.852;19.700;2023-11-21T17:31:59;52.28;;;22.85;;
21848;SDS011;11089;49.852;19.700;2023-11-21T17:35:00;50.65;;;22.65;;
21848;SDS011;11089;49.852;19.700;2023-11-21T17:38:01;44.90;;;17.85;;
21848;SDS011;11089;49.852;19.700;2023-11-21T17:41:02;50.53;;;21.58;;
21848;SDS011;11089;49.852;19.700;2023-11-21T17:44:03;48.75;;;22.33;;
21848;SDS011;11089;49.852;19.700;2023-11-21T17:47:06;69.10;;;32.47;;
21848;SDS011;11089;49.852;19.700;2023-11-21T17:50:07;74.50;;;34.75;;
21848;SDS011;11089;49.852;19.700;2023-11-21T17:53:08;42.80;;;20.02;;
21848;SDS011;11089;49.852;19.700;2023-11-21T17:56:15;20.55;;;10.48;;
21848;SDS011;11089;49.852;19.700;2023-11-21T17:59:17;15.07;;;6.88;;